createdAt,value
2019-02-11T00:00:49.353Z,2.50
2019-02-11T00:01:49.238Z,3.20
2019-02-11T00:02:49.126Z,1.90
2019-02-11T00:03:49.170Z,2.00
2019-02-11T00:04:48.952Z,1.90
2019-02-11T00:05:48.978Z,2.10
2019-02-11T00:06:48.781Z,2.30
2019-02-11T00:07:48.819Z,2.00
2019-02-11T00:08:48.604Z,3.00
2019-02-11T00:09:48.595Z,2.20
2019-02-11T00:10:48.430Z,1.90
2019-02-11T00:11:48.403Z,2.20
2019-02-11T00:12:48.272Z,2.40
2019-02-11T00:13:48.171Z,1.80
2019-02-11T00:14:48.219Z,3.80
2019-02-11T00:15:47.994Z,2.80
2019-02-11T00:16:47.908Z,1.80
2019-02-11T00:17:47.865Z,1.70
2019-02-11T00:18:47.733Z,2.20
2019-02-11T00:19:47.648Z,1.90
2019-02-11T00:20:47.647Z,2.60
2019-02-11T00:21:47.474Z,1.90
2019-02-11T00:22:47.401Z,2.60
2019-02-11T00:23:47.456Z,1.70
2019-02-11T00:24:47.212Z,1.80
2019-02-11T00:25:47.124Z,1.60
2019-02-11T00:26:47.070Z,2.50
2019-02-11T00:27:46.967Z,2.40
2019-02-11T00:28:46.873Z,2.50
2019-02-11T00:29:46.884Z,1.90
2019-02-11T00:30:46.693Z,1.90
2019-02-11T00:31:46.692Z,2.00
2019-02-11T00:32:46.560Z,1.80
2019-02-11T00:33:46.498Z,2.20
2019-02-11T00:34:46.345Z,2.60
2019-02-11T00:35:46.308Z,1.90
2019-02-11T00:36:46.166Z,2.20
2019-02-11T00:37:47.578Z,2.30
2019-02-11T00:38:45.993Z,2.30
2019-02-11T00:39:45.926Z,3.20
2019-02-11T00:40:45.820Z,3.50
2019-02-11T00:41:45.939Z,3.40
2019-02-11T00:42:45.661Z,3.20
2019-02-11T00:43:45.746Z,2.30
2019-02-11T00:44:45.474Z,2.10
2019-02-11T00:45:45.554Z,2.00
2019-02-11T00:46:45.335Z,2.80
2019-02-11T00:47:45.394Z,2.30
2019-02-11T00:48:45.126Z,1.80
2019-02-11T00:49:45.044Z,2.90
2019-02-11T00:50:44.949Z,1.90
2019-02-11T00:51:44.983Z,3.50
2019-02-11T00:52:44.789Z,1.60
2019-02-11T00:53:44.788Z,1.90
2019-02-11T00:54:44.604Z,1.90
2019-02-11T00:55:44.513Z,2.10
2019-02-11T00:56:44.602Z,2.20
2019-02-11T00:57:44.357Z,3.00
2019-02-11T00:58:44.255Z,2.10
2019-02-11T00:59:44.217Z,1.30
2019-02-11T01:00:44.089Z,1.50
2019-02-11T01:01:44.022Z,1.60
2019-02-11T01:02:43.922Z,2.30
2019-02-11T01:03:44.035Z,1.70
2019-02-11T01:04:43.731Z,1.80
2019-02-11T01:05:43.843Z,1.50
2019-02-11T01:06:43.558Z,1.30
2019-02-11T01:07:43.684Z,1.80
2019-02-11T01:08:43.383Z,1.50
2019-02-11T01:09:43.300Z,2.20
2019-02-11T01:10:43.268Z,2.10
2019-02-11T01:11:43.122Z,2.10
2019-02-11T01:12:43.051Z,3.20
2019-02-11T01:13:43.078Z,1.90
2019-02-11T01:14:42.866Z,2.10
2019-02-11T01:15:42.817Z,1.70
2019-02-11T01:16:42.895Z,1.50
2019-02-11T01:17:42.618Z,2.10
2019-02-11T01:18:42.700Z,1.90
2019-02-11T01:19:42.425Z,2.10
2019-02-11T01:20:42.510Z,2.20
2019-02-11T01:21:42.253Z,2.40
2019-02-11T01:22:42.351Z,2.40
2019-02-11T01:23:42.078Z,2.00
2019-02-11T01:24:41.990Z,1.50
2019-02-11T01:25:41.928Z,2.00
2019-02-11T01:26:41.818Z,1.90
2019-02-11T01:27:41.762Z,2.70
2019-02-11T01:28:41.743Z,2.60
2019-02-11T01:29:41.583Z,3.10
2019-02-11T01:30:41.468Z,2.50
2019-02-11T01:31:41.559Z,2.30
2019-02-11T01:32:41.294Z,4.10
2019-02-11T01:33:41.397Z,2.00
2019-02-11T01:34:41.121Z,2.00
2019-02-11T01:35:41.178Z,2.60
2019-02-11T01:36:40.945Z,2.60
2019-02-11T01:37:40.985Z,4.00
2019-02-11T01:38:40.788Z,3.10
2019-02-11T01:39:40.791Z,2.80
2019-02-11T01:40:40.597Z,2.40
2019-02-11T01:41:40.515Z,2.90
2019-02-11T01:42:40.607Z,3.40
2019-02-11T01:43:40.350Z,2.80
2019-02-11T01:44:40.383Z,3.30
2019-02-11T01:45:40.218Z,3.70
2019-02-11T01:46:40.169Z,4.40
2019-02-11T01:47:39.996Z,2.60
2019-02-11T01:48:40.063Z,4.30
2019-02-11T01:49:39.814Z,3.90
2019-02-11T01:50:39.731Z,2.90
2019-02-11T01:51:39.847Z,4.20
2019-02-11T01:52:39.554Z,4.10
2019-02-11T01:53:39.687Z,4.70
2019-02-11T01:54:39.379Z,5.10
2019-02-11T01:55:39.291Z,3.30
2019-02-11T01:56:39.270Z,5.70
2019-02-11T01:57:39.118Z,4.30
2019-02-11T01:58:39.045Z,5.10
2019-02-11T01:59:39.081Z,4.20
2019-02-11T02:00:38.858Z,6.10
2019-02-11T02:01:38.890Z,5.20
2019-02-11T02:02:38.682Z,4.30
2019-02-11T02:03:38.731Z,4.80
2019-02-11T02:04:38.511Z,4.50
2019-02-11T02:05:38.423Z,4.10
2019-02-11T02:06:38.516Z,5.70
2019-02-11T02:07:38.247Z,3.30
2019-02-11T02:08:38.175Z,5.50
2019-02-11T02:09:38.126Z,4.50
2019-02-11T02:10:37.988Z,5.60
2019-02-11T02:11:37.931Z,8.00
2019-02-11T02:12:37.813Z,5.80
2019-02-11T02:13:44.651Z,5.00
2019-02-11T02:14:37.639Z,7.10
2019-02-11T02:15:37.554Z,6.70
2019-02-11T02:16:37.470Z,6.50
2019-02-11T02:17:37.766Z,7.20
2019-02-11T02:18:37.329Z,5.00
2019-02-11T02:19:37.206Z,6.00
2019-02-11T02:20:37.117Z,4.80
2019-02-11T02:21:37.183Z,5.90
2019-02-11T02:22:36.944Z,6.00
2019-02-11T02:23:36.870Z,7.10
2019-02-11T02:24:36.789Z,5.70
2019-02-11T02:25:36.683Z,8.10
2019-02-11T02:26:36.597Z,6.70
2019-02-11T02:27:36.607Z,6.10
2019-02-11T02:28:36.437Z,5.60
2019-02-11T02:29:36.336Z,7.00
2019-02-11T02:30:36.441Z,6.50
2019-02-11T02:31:36.167Z,4.70
2019-02-11T02:32:36.229Z,6.00
2019-02-11T02:33:36.002Z,8.20
2019-02-11T02:34:36.035Z,5.90
2019-02-11T02:35:35.813Z,6.00
2019-02-11T02:36:35.729Z,7.50
2019-02-11T02:37:35.850Z,9.90
2019-02-11T02:38:35.569Z,8.20
2019-02-11T02:39:35.465Z,7.20
2019-02-11T02:40:35.462Z,6.20
2019-02-11T02:41:35.301Z,7.70
2019-02-11T02:42:35.269Z,8.90
2019-02-11T02:43:35.130Z,7.90
2019-02-11T02:44:35.078Z,8.20
2019-02-11T02:45:34.944Z,7.60
2019-02-11T02:46:34.856Z,7.90
2019-02-11T02:47:34.894Z,7.10
2019-02-11T02:48:34.706Z,6.50
2019-02-11T02:49:34.597Z,9.30
2019-02-11T02:50:34.708Z,7.10
2019-02-11T02:51:34.426Z,6.90
2019-02-11T02:52:34.517Z,8.30
2019-02-11T02:53:34.270Z,8.80
2019-02-11T02:54:34.325Z,8.20
2019-02-11T02:55:34.072Z,8.50
2019-02-11T02:56:33.988Z,7.30
2019-02-11T02:57:33.943Z,6.90
2019-02-11T02:58:33.828Z,8.50
2019-02-11T02:59:33.728Z,7.90
2019-02-11T03:00:33.959Z,6.60
2019-02-11T03:01:33.557Z,7.30
2019-02-11T03:02:33.468Z,8.40
2019-02-11T03:03:33.598Z,7.80
2019-02-11T03:04:33.292Z,7.70
2019-02-11T03:05:33.205Z,10.10
2019-02-11T03:06:33.226Z,9.90
2019-02-11T03:07:33.032Z,8.00
2019-02-11T03:08:33.016Z,6.00
2019-02-11T03:09:32.876Z,9.70
2019-02-11T03:10:32.792Z,8.10
2019-02-11T03:11:32.685Z,8.20
2019-02-11T03:12:32.596Z,6.30
2019-02-11T03:13:32.609Z,8.00
2019-02-11T03:14:32.437Z,7.70
2019-02-11T03:15:32.337Z,10.50
2019-02-11T03:16:32.422Z,7.40
2019-02-11T03:17:32.167Z,8.70
2019-02-11T03:18:32.075Z,9.70
2019-02-11T03:19:32.066Z,8.20
2019-02-11T03:20:31.901Z,10.50
2019-02-11T03:21:31.816Z,7.40
2019-02-11T03:22:31.848Z,9.00
2019-02-11T03:23:31.646Z,9.00
2019-02-11T03:24:31.569Z,9.00
2019-02-11T03:25:31.662Z,7.80
2019-02-11T03:26:31.387Z,11.10
2019-02-11T03:27:31.295Z,10.20
2019-02-11T03:28:31.208Z,6.70
2019-02-11T03:29:31.315Z,8.60
2019-02-11T03:30:31.035Z,9.20
2019-02-11T03:31:30.949Z,7.10
2019-02-11T03:32:30.897Z,8.70
2019-02-11T03:33:30.897Z,10.00
2019-02-11T03:34:30.703Z,7.30
2019-02-11T03:35:30.599Z,5.20
2019-02-11T03:36:30.713Z,7.90
2019-02-11T03:37:30.428Z,8.10
2019-02-11T03:38:30.342Z,8.00
2019-02-11T03:39:30.356Z,7.40
2019-02-11T03:40:30.176Z,7.70
2019-02-11T03:41:30.079Z,7.40
2019-02-11T03:42:30.136Z,8.20
2019-02-11T03:43:29.909Z,8.00
2019-02-11T03:44:29.978Z,6.10
2019-02-11T03:45:29.735Z,7.50
2019-02-11T03:46:29.843Z,7.00
2019-02-11T03:47:29.559Z,7.00
2019-02-11T03:48:29.563Z,9.00
2019-02-11T03:49:29.412Z,8.00
2019-02-11T03:50:29.375Z,10.60
2019-02-11T03:51:29.216Z,11.10
2019-02-11T03:52:29.124Z,9.40
2019-02-11T03:53:29.189Z,7.20
2019-02-11T03:54:28.965Z,9.60
2019-02-11T03:55:28.872Z,8.60
2019-02-11T03:56:28.798Z,10.70
2019-02-11T03:57:28.691Z,11.60
2019-02-11T03:58:28.616Z,11.40
2019-02-11T03:59:28.644Z,9.60
2019-02-11T04:00:28.432Z,13.20
2019-02-11T04:01:28.344Z,12.00
2019-02-11T04:02:28.427Z,11.40
2019-02-11T04:03:28.170Z,14.30
2019-02-11T04:04:28.275Z,10.90
2019-02-11T04:05:27.997Z,12.00
2019-02-11T04:06:27.911Z,14.50
2019-02-11T04:07:27.834Z,12.40
2019-02-11T04:08:27.737Z,13.60
2019-02-11T04:09:27.665Z,16.20
2019-02-11T04:10:27.659Z,16.80
2019-02-11T04:11:27.478Z,15.80
2019-02-11T04:12:27.399Z,17.30
2019-02-11T04:13:27.482Z,18.40
2019-02-11T04:14:27.233Z,18.00
2019-02-11T04:15:27.129Z,12.20
2019-02-11T04:16:27.088Z,14.70
2019-02-11T04:17:26.973Z,14.50
2019-02-11T04:18:26.872Z,15.90
2019-02-11T04:19:26.932Z,18.60
2019-02-11T04:20:26.696Z,19.00
2019-02-11T04:21:26.627Z,15.30
2019-02-11T04:22:26.715Z,21.10
2019-02-11T04:23:26.437Z,18.60
2019-02-11T04:24:26.555Z,14.60
2019-02-11T04:25:26.268Z,15.70
2019-02-11T04:26:26.332Z,17.50
2019-02-11T04:27:26.088Z,17.50
2019-02-11T04:28:26.002Z,20.20
2019-02-11T04:29:25.985Z,16.50
2019-02-11T04:30:25.835Z,16.50
2019-02-11T04:31:25.745Z,15.80
2019-02-11T04:32:25.760Z,16.80
2019-02-11T04:33:25.569Z,19.40
2019-02-11T04:34:25.496Z,18.90
2019-02-11T04:35:25.572Z,16.70
2019-02-11T04:36:25.308Z,19.70
2019-02-11T04:37:25.226Z,18.70
2019-02-11T04:38:25.182Z,19.90
2019-02-11T04:39:25.094Z,18.00
2019-02-11T04:40:25.023Z,22.50
2019-02-11T04:41:24.877Z,16.60
2019-02-11T04:42:24.789Z,17.80
2019-02-11T04:43:24.710Z,17.70
2019-02-11T04:44:33.632Z,20.50
2019-02-11T04:45:24.547Z,18.80
2019-02-11T04:46:24.449Z,16.50
2019-02-11T04:47:24.365Z,18.20
2019-02-11T04:48:24.271Z,13.30
2019-02-11T04:49:24.189Z,19.40
2019-02-11T04:50:24.111Z,18.20
2019-02-11T04:51:24.039Z,16.00
2019-02-11T04:52:23.926Z,16.20
2019-02-11T04:53:24.052Z,17.70
2019-02-11T04:54:23.813Z,19.80
2019-02-11T04:55:23.895Z,21.80
2019-02-11T04:56:23.578Z,13.40
2019-02-11T04:57:23.490Z,19.20
2019-02-11T04:58:23.473Z,18.00
2019-02-11T04:59:23.317Z,14.00
2019-02-11T05:00:23.246Z,19.70
2019-02-11T05:01:23.287Z,16.20
2019-02-11T05:02:23.055Z,17.30
2019-02-11T05:03:22.974Z,18.90
2019-02-11T05:04:23.104Z,15.50
2019-02-11T05:05:22.816Z,19.60
2019-02-11T05:06:22.713Z,18.90
2019-02-11T05:07:22.730Z,16.60
2019-02-11T05:08:22.539Z,14.10
2019-02-11T05:09:22.466Z,16.20
2019-02-11T05:10:22.380Z,20.40
2019-02-11T05:11:22.327Z,16.20
2019-02-11T05:12:22.194Z,17.20
2019-02-11T05:13:22.139Z,16.80
2019-02-11T05:14:22.019Z,17.70
2019-02-11T05:15:21.978Z,16.80
2019-02-11T05:16:21.854Z,18.50
2019-02-11T05:17:21.960Z,18.00
2019-02-11T05:18:21.674Z,21.80
2019-02-11T05:19:21.584Z,17.90
2019-02-11T05:20:21.601Z,17.40
2019-02-11T05:21:21.418Z,16.00
2019-02-11T05:22:21.326Z,20.90
2019-02-11T05:23:21.305Z,16.90
2019-02-11T05:24:21.173Z,18.00
2019-02-11T05:25:21.081Z,19.90
2019-02-11T05:26:27.676Z,19.20
2019-02-11T05:27:20.896Z,17.70
2019-02-11T05:28:20.813Z,15.20
2019-02-11T05:29:20.836Z,17.40
2019-02-11T05:30:20.632Z,19.20
2019-02-11T05:31:20.676Z,18.10
2019-02-11T05:32:20.463Z,14.90
2019-02-11T05:33:20.616Z,18.60
2019-02-11T05:34:20.360Z,26.30
2019-02-11T05:35:20.197Z,19.60
2019-02-11T05:36:20.135Z,21.80
2019-02-11T05:37:20.069Z,17.00
2019-02-11T05:38:19.945Z,14.50
2019-02-11T05:39:19.857Z,18.20
2019-02-11T05:40:19.782Z,20.40
2019-02-11T05:41:19.693Z,16.70
2019-02-11T05:42:19.597Z,16.10
2019-02-11T05:43:19.598Z,18.40
2019-02-11T05:44:19.420Z,18.20
2019-02-11T05:45:19.342Z,22.50
2019-02-11T05:46:19.345Z,16.60
2019-02-11T05:47:19.161Z,21.10
2019-02-11T05:48:19.079Z,20.10
2019-02-11T05:49:25.658Z,16.30
2019-02-11T05:50:18.904Z,18.50
2019-02-11T05:51:18.937Z,18.60
2019-02-11T05:52:18.729Z,14.90
2019-02-11T05:53:18.648Z,15.10
2019-02-11T05:54:18.599Z,16.00
2019-02-11T05:55:18.475Z,15.70
2019-02-11T05:56:18.398Z,20.60
2019-02-11T05:57:18.306Z,17.80
2019-02-11T05:58:18.242Z,16.90
2019-02-11T05:59:18.132Z,16.90
2019-02-11T06:00:18.039Z,17.60
2019-02-11T06:01:17.974Z,18.40
2019-02-11T06:02:17.866Z,19.50
2019-02-11T06:03:17.784Z,16.40
2019-02-11T06:04:17.693Z,18.00
2019-02-11T06:05:17.613Z,16.30
2019-02-11T06:06:17.532Z,17.30
2019-02-11T06:07:17.439Z,18.50
2019-02-11T06:08:17.345Z,18.20
2019-02-11T06:09:17.258Z,15.30
2019-02-11T06:10:17.200Z,19.70
2019-02-11T06:11:17.098Z,18.50
2019-02-11T06:12:17.025Z,19.80
2019-02-11T06:13:16.930Z,21.50
2019-02-11T06:14:16.837Z,22.30
2019-02-11T06:15:16.743Z,19.90
2019-02-11T06:16:16.666Z,16.90
2019-02-11T06:17:16.572Z,17.70
2019-02-11T06:18:16.486Z,17.10
2019-02-11T06:19:16.399Z,19.50
2019-02-11T06:20:16.308Z,20.20
2019-02-11T06:21:16.260Z,20.80
2019-02-11T06:22:16.133Z,18.50
2019-02-11T06:23:16.062Z,17.10
2019-02-11T06:24:15.965Z,17.70
2019-02-11T06:25:15.874Z,16.40
2019-02-11T06:26:15.821Z,19.60
2019-02-11T06:27:15.701Z,15.70
2019-02-11T06:28:15.613Z,21.50
2019-02-11T06:29:15.539Z,21.20
2019-02-11T06:30:15.443Z,16.50
2019-02-11T06:31:15.354Z,26.30
2019-02-11T06:32:15.296Z,19.90
2019-02-11T06:33:15.184Z,19.80
2019-02-11T06:34:15.095Z,18.30
2019-02-11T06:35:15.014Z,15.80
2019-02-11T06:36:14.921Z,17.60
2019-02-11T06:37:14.853Z,19.70
2019-02-11T06:38:14.758Z,18.50
2019-02-11T06:39:14.663Z,19.10
2019-02-11T06:40:14.575Z,18.40
2019-02-11T06:41:14.493Z,19.00
2019-02-11T06:42:14.415Z,17.30
2019-02-11T06:43:14.316Z,19.90
2019-02-11T06:44:14.243Z,15.20
2019-02-11T06:45:14.143Z,17.20
2019-02-11T06:46:14.061Z,19.50
2019-02-11T06:47:13.986Z,18.60
2019-02-11T06:48:13.889Z,17.50
2019-02-11T06:49:13.809Z,20.40
2019-02-11T06:50:13.715Z,19.80
2019-02-11T06:51:13.622Z,19.10
2019-02-11T06:52:13.558Z,20.70
2019-02-11T06:53:13.451Z,19.40
2019-02-11T06:54:13.369Z,17.30
2019-02-11T06:55:13.275Z,17.20
2019-02-11T06:56:13.195Z,16.50
2019-02-11T06:57:13.117Z,21.40
2019-02-11T06:58:13.051Z,16.90
2019-02-11T06:59:12.927Z,17.60
2019-02-11T07:00:12.893Z,19.40
2019-02-11T07:01:12.759Z,21.30
2019-02-11T07:02:12.684Z,16.70
2019-02-11T07:03:12.585Z,19.80
2019-02-11T07:04:12.505Z,20.80
2019-02-11T07:05:12.410Z,20.30
2019-02-11T07:06:12.330Z,20.40
2019-02-11T07:07:12.249Z,17.70
2019-02-11T07:08:12.225Z,17.50
2019-02-11T07:09:12.086Z,18.50
2019-02-11T07:10:11.982Z,20.10
2019-02-11T07:11:11.897Z,18.00
2019-02-11T07:12:11.825Z,21.60
2019-02-11T07:13:11.715Z,20.00
2019-02-11T07:14:11.632Z,20.90
2019-02-11T07:15:11.551Z,18.30
2019-02-11T07:16:11.457Z,19.40
2019-02-11T07:17:11.401Z,22.50
2019-02-11T07:18:11.291Z,16.40
2019-02-11T07:19:11.197Z,17.20
2019-02-11T07:20:11.113Z,19.50
2019-02-11T07:21:11.029Z,19.40
2019-02-11T07:22:10.952Z,20.10
2019-02-11T07:23:10.859Z,19.60
2019-02-11T07:24:10.770Z,16.50
2019-02-11T07:25:10.680Z,15.30
2019-02-11T07:26:10.594Z,19.10
2019-02-11T07:27:10.522Z,17.20
2019-02-11T07:28:10.420Z,21.20
2019-02-11T07:29:10.331Z,18.50
2019-02-11T07:30:10.253Z,17.70
2019-02-11T07:31:11.189Z,26.40
2019-02-11T07:32:10.193Z,19.70
2019-02-11T07:33:09.989Z,20.20
2019-02-11T07:34:09.968Z,22.00
2019-02-11T07:35:09.826Z,18.50
2019-02-11T07:36:09.775Z,17.70
2019-02-11T07:37:09.663Z,27.70
2019-02-11T07:38:09.581Z,20.70
2019-02-11T07:39:09.468Z,20.00
2019-02-11T07:40:09.389Z,22.30
2019-02-11T07:41:09.297Z,22.00
2019-02-11T07:42:09.437Z,23.70
2019-02-11T07:43:09.122Z,17.80
2019-02-11T07:44:09.222Z,17.30
2019-02-11T07:45:08.973Z,15.80
2019-02-11T07:46:08.881Z,15.60
2019-02-11T07:47:08.853Z,16.20
2019-02-11T07:48:08.715Z,18.20
2019-02-11T07:49:08.617Z,20.30
2019-02-11T07:50:08.642Z,17.70
2019-02-11T07:51:08.434Z,18.00
2019-02-11T07:52:08.480Z,14.00
2019-02-11T07:53:08.267Z,17.20
2019-02-11T07:54:08.252Z,17.90
2019-02-11T07:55:08.089Z,24.30
2019-02-11T07:56:08.004Z,17.30
2019-02-11T07:57:08.098Z,21.70
2019-02-11T07:58:07.851Z,17.80
2019-02-11T07:59:07.742Z,19.70
2019-02-11T08:00:07.656Z,20.90
2019-02-11T08:01:07.578Z,20.10
2019-02-11T08:02:07.499Z,19.40
2019-02-11T08:03:07.410Z,24.10
2019-02-11T08:04:07.341Z,21.90
2019-02-11T08:05:07.305Z,19.10
2019-02-11T08:06:08.968Z,23.60
2019-02-11T08:07:07.053Z,17.60
2019-02-11T08:08:07.148Z,24.10
2019-02-11T08:09:06.885Z,16.10
2019-02-11T08:10:06.794Z,20.70
2019-02-11T08:11:06.727Z,21.60
2019-02-11T08:12:06.621Z,16.50
2019-02-11T08:13:06.567Z,20.90
2019-02-11T08:14:06.454Z,18.60
2019-02-11T08:15:06.560Z,19.40
2019-02-11T08:16:06.280Z,18.30
2019-02-11T08:17:06.358Z,19.90
2019-02-11T08:18:06.123Z,18.00
2019-02-11T08:19:06.171Z,20.90
2019-02-11T08:20:05.942Z,23.50
2019-02-11T08:21:06.051Z,22.20
2019-02-11T08:22:05.777Z,18.60
2019-02-11T08:23:11.966Z,18.60
2019-02-11T08:24:05.593Z,21.00
2019-02-11T08:25:05.569Z,14.80
2019-02-11T08:26:06.253Z,15.50
2019-02-11T08:27:05.400Z,17.00
2019-02-11T08:28:05.264Z,13.60
2019-02-11T08:29:05.213Z,18.20
2019-02-11T08:30:05.101Z,17.30
2019-02-11T08:31:05.023Z,19.90
2019-02-11T08:32:04.907Z,18.20
2019-02-11T08:33:04.856Z,17.30
2019-02-11T08:34:04.736Z,23.80
2019-02-11T08:35:04.840Z,18.10
2019-02-11T08:36:04.565Z,18.80
2019-02-11T08:37:04.647Z,18.10
2019-02-11T08:38:04.408Z,19.60
2019-02-11T08:39:04.457Z,20.10
2019-02-11T08:40:04.223Z,16.50
2019-02-11T08:41:04.266Z,24.00
2019-02-11T08:42:04.052Z,23.10
2019-02-11T08:43:04.107Z,16.90
2019-02-11T08:44:03.878Z,20.50
2019-02-11T08:45:03.880Z,17.80
2019-02-11T08:46:03.707Z,19.50
2019-02-11T08:47:03.620Z,19.60
2019-02-11T08:48:03.728Z,19.70
2019-02-11T08:49:03.453Z,17.60
2019-02-11T08:50:03.364Z,17.80
2019-02-11T08:51:03.307Z,16.70
2019-02-11T08:52:03.196Z,17.20
2019-02-11T08:53:03.152Z,13.50
2019-02-11T08:54:03.029Z,19.00
2019-02-11T08:55:03.137Z,17.80
2019-02-11T08:56:03.501Z,19.70
2019-02-11T08:57:02.765Z,17.50
2019-02-11T08:58:02.769Z,19.00
2019-02-11T08:59:02.592Z,17.70
2019-02-11T09:00:02.516Z,17.10
2019-02-11T09:01:02.552Z,21.00
2019-02-11T09:02:02.344Z,17.50
2019-02-11T09:03:02.269Z,19.50
2019-02-11T09:04:02.369Z,20.10
2019-02-11T09:05:02.082Z,18.00
2019-02-11T09:06:01.997Z,17.80
2019-02-11T09:07:01.920Z,20.20
2019-02-11T09:08:01.842Z,19.80
2019-02-11T09:09:01.741Z,26.90
2019-02-11T09:10:01.663Z,19.20
2019-02-11T09:11:01.570Z,17.90
2019-02-11T09:12:01.488Z,19.40
2019-02-11T09:13:01.528Z,22.10
2019-02-11T09:14:01.321Z,20.70
2019-02-11T09:15:01.240Z,15.40
2019-02-11T09:16:01.144Z,20.40
2019-02-11T09:17:01.066Z,14.70
2019-02-11T09:18:00.992Z,17.50
2019-02-11T09:19:00.903Z,19.50
2019-02-11T09:20:00.805Z,14.90
2019-02-11T09:21:00.728Z,24.90
2019-02-11T09:22:07.362Z,17.50
2019-02-11T09:23:00.556Z,18.70
2019-02-11T09:24:00.478Z,24.80
2019-02-11T09:25:00.384Z,16.70
2019-02-11T09:26:00.293Z,17.70
2019-02-11T09:27:00.214Z,19.80
2019-02-11T09:28:00.129Z,20.80
2019-02-11T09:29:00.060Z,18.20
2019-02-11T09:29:59.955Z,16.70
2019-02-11T09:30:59.876Z,21.40
2019-02-11T09:31:59.827Z,20.00
2019-02-11T09:32:59.708Z,20.50
2019-02-11T09:33:59.629Z,18.20
2019-02-11T09:34:59.536Z,16.50
2019-02-11T09:35:59.453Z,17.40
2019-02-11T09:36:59.368Z,19.60
2019-02-11T09:37:59.280Z,17.90
2019-02-11T09:38:59.356Z,21.90
2019-02-11T09:39:59.105Z,18.50
2019-02-11T09:40:59.133Z,18.50
2019-02-11T09:41:58.940Z,17.10
2019-02-11T09:42:58.942Z,18.30
2019-02-11T09:43:58.809Z,21.10
2019-02-11T09:44:58.691Z,16.80
2019-02-11T09:46:03.777Z,24.50
2019-02-11T09:46:58.518Z,18.80
2019-02-11T09:47:58.438Z,23.70
2019-02-11T09:48:58.361Z,18.40
2019-02-11T09:49:58.265Z,17.20
2019-02-11T09:50:58.185Z,19.90
2019-02-11T09:51:58.113Z,21.00
2019-02-11T09:52:58.014Z,18.30
2019-02-11T09:53:57.951Z,20.00
2019-02-11T09:54:57.845Z,17.70
2019-02-11T09:55:57.761Z,17.30
2019-02-11T09:56:57.684Z,18.80
2019-02-11T09:57:57.591Z,17.60
2019-02-11T09:58:57.530Z,21.30
2019-02-11T09:59:57.425Z,16.10
2019-02-11T10:00:57.347Z,18.30
2019-02-11T10:01:57.273Z,14.90
2019-02-11T10:02:57.176Z,14.80
2019-02-11T10:03:57.104Z,18.90
2019-02-11T10:04:57.023Z,18.80
2019-02-11T10:05:56.921Z,13.80
2019-02-11T10:06:56.849Z,15.10
2019-02-11T10:07:56.754Z,16.30
2019-02-11T10:08:56.693Z,15.10
2019-02-11T10:09:56.633Z,16.30
2019-02-11T10:10:56.506Z,18.00
2019-02-11T10:11:56.416Z,14.90
2019-02-11T10:12:56.331Z,16.50
2019-02-11T10:13:56.268Z,16.40
2019-02-11T10:14:56.164Z,18.20
2019-02-11T10:15:56.079Z,14.60
2019-02-11T10:16:56.093Z,16.80
2019-02-11T10:17:55.912Z,15.90
2019-02-11T10:18:55.838Z,18.30
2019-02-11T10:19:55.908Z,13.80
2019-02-11T10:20:55.657Z,14.70
2019-02-11T10:21:55.575Z,14.30
2019-02-11T10:23:02.196Z,13.90
2019-02-11T10:23:55.504Z,13.20
2019-02-11T10:24:55.338Z,15.30
2019-02-11T10:25:55.354Z,18.40
2019-02-11T10:26:55.154Z,13.50
2019-02-11T10:27:55.069Z,12.60
2019-02-11T10:28:57.035Z,17.70
2019-02-11T10:29:54.905Z,15.70
2019-02-11T10:30:54.821Z,16.40
2019-02-11T10:31:54.740Z,14.40
2019-02-11T10:32:54.653Z,10.70
2019-02-11T10:33:54.602Z,14.50
2019-02-11T10:34:54.493Z,13.30
2019-02-11T10:35:54.400Z,14.90
2019-02-11T10:36:54.319Z,14.60
2019-02-11T10:37:54.240Z,16.00
2019-02-11T10:38:54.148Z,13.10
2019-02-11T10:39:54.092Z,12.80
2019-02-11T10:40:53.985Z,20.00
2019-02-11T10:41:53.905Z,15.80
2019-02-11T10:42:53.827Z,15.40
2019-02-11T10:43:53.816Z,16.50
2019-02-11T10:44:53.696Z,13.70
2019-02-11T10:45:53.625Z,12.90
2019-02-11T10:46:53.481Z,16.40
2019-02-11T10:47:53.397Z,15.30
2019-02-11T10:48:53.438Z,12.60
2019-02-11T10:49:53.250Z,10.90
2019-02-11T10:50:53.147Z,15.00
2019-02-11T10:51:53.071Z,15.70
2019-02-11T10:52:52.982Z,16.90
2019-02-11T10:53:52.907Z,13.50
2019-02-11T10:54:52.897Z,12.80
2019-02-11T10:55:52.733Z,14.70
2019-02-11T10:56:52.650Z,14.00
2019-02-11T10:57:52.578Z,15.00
2019-02-11T10:58:52.481Z,11.80
2019-02-11T10:59:52.412Z,14.10
2019-02-11T11:00:52.323Z,13.40
2019-02-11T11:01:52.232Z,13.20
2019-02-11T11:02:52.147Z,15.70
2019-02-11T11:03:53.071Z,17.40
2019-02-11T11:04:51.996Z,17.90
2019-02-11T11:05:51.963Z,13.20
2019-02-11T11:06:51.813Z,16.60
2019-02-11T11:07:51.728Z,12.80
2019-02-11T11:08:51.726Z,14.70
2019-02-11T11:09:51.581Z,12.70
2019-02-11T11:10:51.478Z,13.30
2019-02-11T11:11:51.400Z,15.30
2019-02-11T11:12:51.313Z,18.00
2019-02-11T11:13:51.228Z,12.30
2019-02-11T11:14:51.163Z,13.40
2019-02-11T11:15:51.058Z,13.80
2019-02-11T11:16:50.973Z,16.80
2019-02-11T11:17:50.896Z,12.00
2019-02-11T11:18:50.807Z,11.20
2019-02-11T11:19:50.739Z,15.90
2019-02-11T11:20:50.643Z,12.70
2019-02-11T11:21:50.556Z,11.10
2019-02-11T11:22:50.470Z,10.10
2019-02-11T11:23:50.397Z,11.70
2019-02-11T11:24:50.317Z,16.10
2019-02-11T11:25:50.222Z,12.30
2019-02-11T11:26:50.145Z,12.70
2019-02-11T11:27:50.054Z,13.40
2019-02-11T11:28:49.974Z,14.30
2019-02-11T11:29:49.904Z,12.20
2019-02-11T11:30:49.810Z,13.30
2019-02-11T11:31:49.715Z,13.40
2019-02-11T11:32:49.640Z,14.80
2019-02-11T11:33:49.550Z,13.30
2019-02-11T11:34:49.558Z,15.10
2019-02-11T11:35:49.382Z,12.50
2019-02-11T11:36:49.355Z,15.90
2019-02-11T11:37:49.223Z,15.10
2019-02-11T11:38:49.134Z,12.00
2019-02-11T11:39:49.060Z,12.80
2019-02-11T11:40:48.967Z,12.50
2019-02-11T11:41:48.887Z,11.10
2019-02-11T11:42:48.799Z,11.50
2019-02-11T11:43:48.713Z,11.90
2019-02-11T11:44:48.646Z,12.90
2019-02-11T11:45:48.544Z,13.80
2019-02-11T11:46:48.461Z,11.20
2019-02-11T11:47:48.377Z,12.00
2019-02-11T11:48:48.305Z,10.90
2019-02-11T11:49:48.254Z,13.60
2019-02-11T11:50:48.121Z,13.80
2019-02-11T11:51:48.037Z,11.20
2019-02-11T11:52:47.984Z,14.40
2019-02-11T11:53:47.880Z,12.00
2019-02-11T11:54:47.780Z,11.50
2019-02-11T11:55:47.735Z,13.10
2019-02-11T11:56:47.614Z,10.70
2019-02-11T11:57:47.580Z,11.30
2019-02-11T11:58:47.457Z,10.10
2019-02-11T11:59:47.362Z,10.90
2019-02-11T12:00:47.303Z,9.00
2019-02-11T12:01:47.207Z,12.50
2019-02-11T12:03:00.450Z,12.10
2019-02-11T12:03:47.020Z,15.00
2019-02-11T12:04:46.942Z,15.50
2019-02-11T12:05:46.867Z,14.00
2019-02-11T12:06:46.775Z,13.40
2019-02-11T12:07:46.696Z,13.50
2019-02-11T12:08:46.599Z,10.40
2019-02-11T12:09:46.519Z,9.70
2019-02-11T12:10:46.450Z,10.00
2019-02-11T12:11:46.350Z,8.80
2019-02-11T12:12:46.258Z,7.30
2019-02-11T12:13:46.172Z,9.70
2019-02-11T12:14:46.101Z,10.40
2019-02-11T12:15:46.026Z,9.50
2019-02-11T12:16:56.800Z,12.00
2019-02-11T12:17:46.109Z,10.40
2019-02-11T12:18:45.750Z,10.30
2019-02-11T12:19:45.851Z,10.10
2019-02-11T12:20:45.588Z,10.50
2019-02-11T12:21:45.661Z,11.80
2019-02-11T12:22:45.405Z,13.60
2019-02-11T12:23:45.323Z,13.60
2019-02-11T12:24:45.238Z,12.00
2019-02-11T12:25:45.158Z,14.20
2019-02-11T12:26:45.061Z,12.50
2019-02-11T12:27:45.086Z,13.10
2019-02-11T12:28:44.888Z,13.90
2019-02-11T12:29:44.803Z,11.90
2019-02-11T12:30:44.940Z,11.40
2019-02-11T12:31:44.636Z,13.80
2019-02-11T12:32:44.547Z,12.20
2019-02-11T12:33:44.514Z,12.80
2019-02-11T12:34:44.385Z,13.30
2019-02-11T12:35:44.304Z,11.10
2019-02-11T12:36:44.212Z,10.90
2019-02-11T12:37:44.127Z,11.60
2019-02-11T12:38:44.033Z,15.10
2019-02-11T12:39:44.143Z,12.50
2019-02-11T12:40:43.890Z,12.50
2019-02-11T12:41:43.793Z,10.80
2019-02-11T12:42:43.854Z,12.90
2019-02-11T12:43:43.756Z,11.20
2019-02-11T12:44:43.529Z,13.80
2019-02-11T12:45:43.459Z,10.30
2019-02-11T12:46:43.356Z,11.60
2019-02-11T12:47:43.280Z,10.80
2019-02-11T12:48:43.189Z,9.60
2019-02-11T12:49:43.185Z,9.20
2019-02-11T12:50:43.029Z,11.60
2019-02-11T12:51:42.994Z,9.90
2019-02-11T12:52:42.883Z,8.80
2019-02-11T12:53:42.770Z,9.80
2019-02-11T12:54:42.678Z,10.80
2019-02-11T12:55:42.609Z,9.10
2019-02-11T12:56:42.505Z,11.40
2019-02-11T12:57:42.423Z,12.40
2019-02-11T12:58:42.339Z,15.40
2019-02-11T12:59:42.254Z,10.00